Time,TemperatureF,DewpointF,PressureIn,WindDirection,WindDirectionDegrees,WindSpeedMPH,WindSpeedGustMPH,Humidity,HourlyPrecipIn,Conditions,Clouds,dailyrainin,SolarRadiationWatts/m^2,SoftwareType,DateUTC
2013-08-13 00:01:00,70.0,52.0,-100.00,WNW,289,4.0,8.0,52,0.00,,,0.00,1.000000,,2013-08-13 07:01:00,
2013-08-13 00:42:00,69.0,51.0,-100.00,WSW,258,3.0,8.0,52,0.00,,,0.00,1.000000,,2013-08-13 07:42:00,
2013-08-13 00:52:00,69.0,51.0,-100.00,WSW,258,3.0,8.0,52,0.00,,,0.00,1.000000,,2013-08-13 07:52:00,
2013-08-13 01:01:00,69.0,51.0,-100.00,WSW,258,3.0,8.0,52,0.00,,,0.00,1.000000,,2013-08-13 08:01:00,
2013-08-13 01:42:00,66.0,50.0,-100.00,WSW,254,4.0,8.0,56,0.00,,,0.00,1.000000,,2013-08-13 08:42:00,
2013-08-13 01:52:00,66.0,50.0,-100.00,WSW,254,4.0,8.0,56,0.00,,,0.00,1.000000,,2013-08-13 08:52:00,
2013-08-13 02:01:00,66.0,50.0,-100.00,WSW,254,4.0,8.0,56,0.00,,,0.00,1.000000,,2013-08-13 09:01:00,
2013-08-13 02:43:00,65.0,52.0,-100.00,West,262,3.0,10.0,63,0.00,,,0.00,1.000000,,2013-08-13 09:43:00,
2013-08-13 02:53:00,65.0,52.0,-100.00,West,262,3.0,10.0,63,0.00,,,0.00,1.000000,,2013-08-13 09:53:00,
2013-08-13 03:03:00,65.0,52.0,-100.00,West,262,3.0,10.0,63,0.00,,,0.00,1.000000,,2013-08-13 10:03:00,
2013-08-13 03:43:00,63.0,51.0,-100.00,WSW,249,3.0,6.0,66,0.00,,,0.00,1.000000,,2013-08-13 10:43:00,
2013-08-13 03:52:00,63.0,51.0,-100.00,WSW,249,3.0,6.0,66,0.00,,,0.00,1.000000,,2013-08-13 10:52:00,
2013-08-13 04:02:00,63.0,51.0,-100.00,WSW,249,3.0,6.0,66,0.00,,,0.00,1.000000,,2013-08-13 11:02:00,
2013-08-13 04:42:00,59.0,48.0,-100.00,WSW,240,5.0,7.0,66,0.00,,,0.00,1.000000,,2013-08-13 11:42:00,
2013-08-13 04:52:00,59.0,48.0,-100.00,WSW,240,5.0,7.0,66,0.00,,,0.00,1.000000,,2013-08-13 11:52:00,
2013-08-13 05:01:00,59.0,48.0,-100.00,WSW,240,5.0,7.0,66,0.00,,,0.00,1.000000,,2013-08-13 12:01:00,
2013-08-13 05:42:00,58.0,47.0,-100.00,WSW,244,3.0,6.0,67,0.00,,,0.00,1.000000,,2013-08-13 12:42:00,
2013-08-13 05:52:00,58.0,47.0,-100.00,WSW,244,3.0,6.0,67,0.00,,,0.00,1.000000,,2013-08-13 12:52:00,
2013-08-13 06:01:00,58.0,47.0,-100.00,WSW,244,3.0,6.0,67,0.00,,,0.00,1.000000,,2013-08-13 13:01:00,
2013-08-13 06:42:00,56.0,45.0,-100.00,SW,230,4.0,6.0,66,0.00,,,0.00,1.000000,,2013-08-13 13:42:00,
2013-08-13 06:52:00,56.0,45.0,-100.00,SW,230,4.0,6.0,66,0.00,,,0.00,1.000000,,2013-08-13 13:52:00,
2013-08-13 07:02:00,56.0,45.0,-100.00,SW,230,4.0,6.0,66,0.00,,,0.00,1.000000,,2013-08-13 14:02:00,
2013-08-13 07:42:00,59.0,47.0,-100.00,South,182,2.0,4.0,65,0.00,,,0.00,50.000000,,2013-08-13 14:42:00,
2013-08-13 07:52:00,59.0,47.0,-100.00,South,182,2.0,4.0,65,0.00,,,0.00,50.000000,,2013-08-13 14:52:00,
2013-08-13 08:02:00,59.0,47.0,-100.00,South,182,2.0,4.0,65,0.00,,,0.00,50.000000,,2013-08-13 15:02:00,
2013-08-13 08:44:00,63.0,46.0,-100.00,SSW,207,5.0,6.0,54,0.00,,,0.00,199.000000,,2013-08-13 15:44:00,
2013-08-13 08:54:00,63.0,46.0,-100.00,SSW,207,5.0,6.0,54,0.00,,,0.00,199.000000,,2013-08-13 15:54:00,
2013-08-13 09:03:00,63.0,46.0,-100.00,SSW,207,5.0,6.0,54,0.00,,,0.00,199.000000,,2013-08-13 16:03:00,
2013-08-13 09:45:00,71.0,49.0,-100.00,South,170,2.0,7.0,45,0.00,,,0.00,379.000000,,2013-08-13 16:45:00,
2013-08-13 09:54:00,71.0,49.0,-100.00,South,170,2.0,7.0,45,0.00,,,0.00,379.000000,,2013-08-13 16:54:00,
2013-08-13 10:05:00,71.0,49.0,-100.00,South,170,2.0,7.0,45,0.00,,,0.00,379.000000,,2013-08-13 17:05:00,
2013-08-13 10:46:00,-999.0,-99.9,-100.00,SE,136,4.0,7.0,-999,0.00,,,0.00,548.000000,,2013-08-13 17:46:00,
2013-08-13 10:56:00,75.0,50.0,-100.00,SE,136,4.0,7.0,41,0.00,,,0.00,548.000000,,2013-08-13 17:56:00,
2013-08-13 11:05:00,75.0,50.0,-100.00,SE,136,4.0,7.0,41,0.00,,,0.00,548.000000,,2013-08-13 18:05:00,
2013-08-13 11:44:00,79.0,49.0,-100.00,NNE,12,3.0,9.0,35,0.00,,,0.00,686.000000,,2013-08-13 18:44:00,
2013-08-13 11:56:00,79.0,49.0,-100.00,NNE,12,3.0,9.0,35,0.00,,,0.00,686.000000,,2013-08-13 18:56:00,
2013-08-13 12:04:00,79.0,49.0,-100.00,NNE,12,3.0,9.0,35,0.00,,,0.00,686.000000,,2013-08-13 19:04:00,
2013-08-13 12:44:00,83.0,47.0,-100.00,NNE,33,4.0,10.0,29,0.00,,,0.00,780.000000,,2013-08-13 19:44:00,
2013-08-13 12:55:00,83.0,47.0,-100.00,NNE,33,4.0,10.0,29,0.00,,,0.00,780.000000,,2013-08-13 19:55:00,
2013-08-13 13:04:00,83.0,47.0,-100.00,NNE,33,4.0,10.0,29,0.00,,,0.00,780.000000,,2013-08-13 20:04:00,
2013-08-13 13:45:00,88.0,46.0,-100.00,NNW,347,4.0,9.0,23,0.00,,,0.00,802.000000,,2013-08-13 20:45:00,
2013-08-13 13:53:00,88.0,46.0,-100.00,NNW,347,4.0,9.0,23,0.00,,,0.00,802.000000,,2013-08-13 20:53:00,
2013-08-13 14:01:00,88.0,46.0,-100.00,NNW,347,4.0,9.0,23,0.00,,,0.00,802.000000,,2013-08-13 21:01:00,
2013-08-13 14:46:00,91.0,44.0,-100.00,ENE,66,5.0,10.0,20,0.00,,,0.00,802.000000,,2013-08-13 21:46:00,
2013-08-13 14:54:00,91.0,44.0,-100.00,ENE,66,5.0,10.0,20,0.00,,,0.00,802.000000,,2013-08-13 21:54:00,
2013-08-13 15:03:00,91.0,44.0,-100.00,ENE,66,5.0,10.0,20,0.00,,,0.00,802.000000,,2013-08-13 22:03:00,
2013-08-13 15:50:00,93.0,43.0,-100.00,West,259,4.0,13.0,18,0.00,,,0.00,758.000000,,2013-08-13 22:50:00,
2013-08-13 15:56:00,93.0,43.0,-100.00,West,259,4.0,13.0,18,0.00,,,0.00,758.000000,,2013-08-13 22:56:00,
2013-08-13 16:03:00,93.0,43.0,-100.00,West,259,4.0,13.0,18,0.00,,,0.00,758.000000,,2013-08-13 23:03:00,
2013-08-13 16:47:00,94.0,43.0,-100.00,SSW,205,5.0,10.0,17,0.00,,,0.00,603.000000,,2013-08-13 23:47:00,
2013-08-13 16:57:00,94.0,43.0,-100.00,SSW,205,5.0,10.0,17,0.00,,,0.00,603.000000,,2013-08-13 23:57:00,
2013-08-13 17:03:00,94.0,43.0,-100.00,SSW,205,5.0,10.0,17,0.00,,,0.00,603.000000,,2013-08-14 00:03:00,
2013-08-13 17:42:00,95.0,42.0,-100.00,NW,315,6.0,12.0,16,0.00,,,0.00,526.000000,,2013-08-14 00:42:00,
2013-08-13 17:52:00,95.0,42.0,-100.00,NW,315,6.0,12.0,16,0.00,,,0.00,526.000000,,2013-08-14 00:52:00,
2013-08-13 18:01:00,95.0,42.0,-100.00,NW,315,6.0,12.0,16,0.00,,,0.00,526.000000,,2013-08-14 01:01:00,
2013-08-13 18:42:00,94.0,41.0,-100.00,NNE,23,7.0,12.0,16,0.00,,,0.00,360.000000,,2013-08-14 01:42:00,
2013-08-13 18:52:00,94.0,41.0,-100.00,NNE,23,7.0,12.0,16,0.00,,,0.00,360.000000,,2013-08-14 01:52:00,
2013-08-13 19:02:00,94.0,41.0,-100.00,NNE,23,7.0,12.0,16,0.00,,,0.00,360.000000,,2013-08-14 02:02:00,
2013-08-13 19:42:00,92.0,39.0,-100.00,NNE,14,7.0,15.0,16,0.00,,,0.00,201.000000,,2013-08-14 02:42:00,
2013-08-13 19:52:00,92.0,39.0,-100.00,NNE,14,7.0,15.0,16,0.00,,,0.00,201.000000,,2013-08-14 02:52:00,
2013-08-13 20:01:00,92.0,39.0,-100.00,NNE,14,7.0,15.0,16,0.00,,,0.00,201.000000,,2013-08-14 03:01:00,
2013-08-13 20:43:00,85.0,35.0,-100.00,North,350,7.0,19.0,17,0.00,,,0.00,37.000000,,2013-08-14 03:43:00,
2013-08-13 20:53:00,85.0,35.0,-100.00,North,350,7.0,19.0,17,0.00,,,0.00,37.000000,,2013-08-14 03:53:00,
2013-08-13 21:03:00,85.0,35.0,-100.00,North,350,7.0,19.0,17,0.00,,,0.00,37.000000,,2013-08-14 04:03:00,
2013-08-13 21:42:00,80.0,37.0,-100.00,SSE,156,2.0,10.0,21,0.00,,,0.00,1.000000,,2013-08-14 04:42:00,
2013-08-13 21:52:00,80.0,37.0,-100.00,SSE,156,2.0,10.0,21,0.00,,,0.00,1.000000,,2013-08-14 04:52:00,
2013-08-13 22:02:00,80.0,37.0,-100.00,SSE,156,2.0,10.0,21,0.00,,,0.00,1.000000,,2013-08-14 05:02:00,
2013-08-13 22:42:00,80.0,40.0,-100.00,NW,306,5.0,11.0,24,0.00,,,0.00,1.000000,,2013-08-14 05:42:00,
2013-08-13 22:52:00,80.0,40.0,-100.00,NW,306,5.0,11.0,24,0.00,,,0.00,1.000000,,2013-08-14 05:52:00,
2013-08-13 23:01:00,80.0,40.0,-100.00,NW,306,5.0,11.0,24,0.00,,,0.00,1.000000,,2013-08-14 06:01:00,
2013-08-13 23:42:00,76.0,50.0,-100.00,NNW,327,6.0,10.0,40,0.00,,,-99.99,1.000000,,2013-08-14 06:42:00,
2013-08-13 23:52:00,76.0,50.0,-100.00,NNW,327,6.0,10.0,40,0.00,,,-99.99,1.000000,,2013-08-14 06:52:00,